Time;durP1;ratioP1;P1;durP2;ratioP2;P2;SDS_P1;SDS_P2;PMS_P1;PMS_P2;Temp;Humidity;BMP_temperature;BMP_pressure;BME280_temperature;BME280_humidity;BME280_pressure;Samples;Min_cycle;Max_cycle;Signal;HPM_P1;HPM_P2
2021/10/10 00:00:50;;;;;;;15.90;9.43;;;;;;;3.67;68.74;97752.02;1845996;77;21105;-81
2021/10/10 00:03:16;;;;;;;13.05;8.85;;;;;;;3.63;69.00;97754.91;1818132;77;21722;-81
2021/10/10 00:05:42;;;;;;;19.60;10.38;;;;;;;3.64;69.23;97749.66;1830840;75;21016;-80
2021/10/10 00:08:07;;;;;;;15.88;9.55;;;;;;;3.59;69.23;97749.98;1814103;77;21040;-81
2021/10/10 00:10:33;;;;;;;14.38;9.80;;;;;;;3.54;69.50;97749.92;1808597;79;21043;-81
2021/10/10 00:12:59;;;;;;;15.32;9.83;;;;;;;3.48;69.42;97749.06;1816919;79;21020;-80
2021/10/10 00:15:25;;;;;;;16.45;10.85;;;;;;;3.42;69.80;97754.17;1817067;79;21020;-81
2021/10/10 00:17:52;;;;;;;18.98;9.48;;;;;;;3.42;69.95;97752.06;1816702;79;21418;-82
2021/10/10 00:20:18;;;;;;;15.90;10.00;;;;;;;3.42;69.98;97746.45;1816996;79;21082;-81
2021/10/10 00:22:44;;;;;;;16.75;10.45;;;;;;;3.42;69.96;97746.92;1817032;79;21071;-81
2021/10/10 00:25:10;;;;;;;13.83;9.75;;;;;;;3.42;69.85;97750.31;1816985;77;21070;-81
2021/10/10 00:27:36;;;;;;;19.90;11.25;;;;;;;3.38;69.82;97745.00;1817078;79;21162;-81
2021/10/10 00:30:03;;;;;;;16.97;10.75;;;;;;;3.36;70.02;97747.31;1845465;76;21067;-81
2021/10/10 00:32:29;;;;;;;17.57;10.65;;;;;;;3.33;70.02;97747.53;1824163;77;21180;-81
2021/10/10 00:34:55;;;;;;;15.55;10.25;;;;;;;3.28;70.04;97745.28;1816889;79;21394;-81
2021/10/10 00:37:20;;;;;;;16.10;9.73;;;;;;;3.22;69.89;97748.23;1817254;79;21071;-80
2021/10/10 00:39:46;;;;;;;13.88;9.58;;;;;;;3.18;69.81;97742.95;1816808;79;21063;-80
2021/10/10 00:42:12;;;;;;;15.60;10.25;;;;;;;3.16;70.28;97742.23;1817143;79;21430;-81
2021/10/10 00:44:38;;;;;;;15.72;9.70;;;;;;;3.15;69.93;97736.28;1817153;79;21139;-80
2021/10/10 00:47:04;;;;;;;16.70;10.68;;;;;;;3.13;69.99;97738.13;1843817;76;21088;-81
2021/10/10 00:49:30;;;;;;;16.95;10.63;;;;;;;3.14;70.50;97740.23;1830404;77;21039;-80
2021/10/10 00:51:57;;;;;;;13.38;9.80;;;;;;;3.12;70.32;97731.81;1854880;77;21069;-81
2021/10/10 00:54:23;;;;;;;15.83;10.68;;;;;;;3.07;70.37;97738.98;1834383;76;21061;-81
2021/10/10 00:56:49;;;;;;;16.12;9.63;;;;;;;3.04;70.49;97738.73;1813855;77;21039;-81
2021/10/10 00:59:14;;;;;;;18.07;10.58;;;;;;;3.04;70.70;97737.91;1807325;79;21450;-80
2021/10/10 01:01:40;;;;;;;15.55;10.53;;;;;;;3.03;70.48;97731.13;1816451;77;21062;-81
2021/10/10 01:04:06;;;;;;;19.62;10.35;;;;;;;3.03;70.50;97737.09;1806233;77;21450;-80
2021/10/10 01:06:32;;;;;;;18.00;10.45;;;;;;;3.03;70.37;97736.27;1795436;80;21036;-81
2021/10/10 01:08:58;;;;;;;16.52;11.22;;;;;;;3.00;70.49;97730.41;1794066;80;21042;-81
2021/10/10 01:11:26;;;;;;;15.20;10.15;;;;;;;2.96;70.69;97731.55;1794348;79;21122;-80
2021/10/10 01:13:52;;;;;;;15.55;10.25;;;;;;;2.94;70.89;97728.27;1811840;77;21443;-81
2021/10/10 01:16:17;;;;;;;18.32;11.28;;;;;;;2.90;70.90;97724.69;1846586;76;21099;-80
2021/10/10 01:18:44;;;;;;;14.40;11.08;;;;;;;2.84;71.04;97723.83;1846008;77;21027;-81
2021/10/10 01:21:09;;;;;;;13.32;9.48;;;;;;;2.81;70.99;97724.03;1849806;76;21322;-81
2021/10/10 01:23:35;;;;;;;22.52;11.08;;;;;;;2.79;71.21;97725.42;1846243;77;21409;-80
2021/10/10 01:26:01;;;;;;;14.95;10.32;;;;;;;2.81;71.31;97725.31;1849398;76;20991;-80
2021/10/10 01:28:26;;;;;;;14.05;9.68;;;;;;;2.78;70.91;97721.67;1850111;76;21030;-81
2021/10/10 01:30:52;;;;;;;16.85;10.20;;;;;;;2.76;70.97;97720.92;1846367;77;21370;-81
2021/10/10 01:33:18;;;;;;;17.48;11.35;;;;;;;2.73;71.05;97716.81;1843300;77;21000;-80
2021/10/10 01:35:43;;;;;;;14.38;10.00;;;;;;;2.70;71.62;97720.41;1847162;77;21055;-80
2021/10/10 01:38:11;;;;;;;15.55;10.20;;;;;;;2.64;71.37;97718.72;1845356;77;21363;-80
2021/10/10 01:40:38;;;;;;;17.75;10.80;;;;;;;2.59;71.46;97713.86;1832107;77;21425;-81
2021/10/10 01:43:05;;;;;;;18.87;10.68;;;;;;;2.56;71.51;97720.94;1794020;77;21100;-80
2021/10/10 01:45:30;;;;;;;15.00;11.08;;;;;;;2.54;71.38;97715.09;1820614;78;21099;-80
2021/10/10 01:47:56;;;;;;;15.75;10.75;;;;;;;2.52;71.76;97714.37;1841809;77;21189;-80
2021/10/10 01:50:22;;;;;;;16.62;11.55;;;;;;;2.50;71.87;97711.09;1848361;77;21560;-80
2021/10/10 01:52:50;;;;;;;16.35;11.28;;;;;;;2.46;72.01;97710.47;1847601;76;21106;-81
2021/10/10 01:55:15;;;;;;;17.87;11.30;;;;;;;2.46;72.30;97716.06;1849423;76;20992;-80
2021/10/10 01:57:41;;;;;;;16.80;10.78;;;;;;;2.44;72.13;97703.34;1849775;76;21118;-81
2021/10/10 02:00:08;;;;;;;18.87;11.78;;;;;;;2.43;72.12;97705.52;1849359;77;21145;-80
2021/10/10 02:02:34;;;;;;;18.52;11.75;;;;;;;2.46;72.32;97703.23;1849019;76;21424;-80
2021/10/10 02:04:59;;;;;;;18.60;11.50;;;;;;;2.46;72.15;97704.52;1848110;77;21074;-80
2021/10/10 02:07:25;;;;;;;21.87;13.90;;;;;;;2.47;72.32;97703.59;1848352;77;21417;-80
2021/10/10 02:09:51;;;;;;;18.32;10.95;;;;;;;2.47;72.34;97701.03;1848306;77;21421;-80
2021/10/10 02:12:17;;;;;;;17.02;11.35;;;;;;;2.44;72.30;97695.64;1849338;76;20956;-80
2021/10/10 02:14:45;;;;;;;15.28;10.43;;;;;;;2.41;72.18;97702.23;1847030;77;21109;-80
2021/10/10 02:19:35;;;;;;;16.70;11.48;;;;;;;2.45;72.43;97699.03;1848789;77;21074;-80
2021/10/10 02:22:01;;;;;;;16.90;11.00;;;;;;;2.47;72.28;97695.90;1798459;77;21015;-80
2021/10/10 02:24:27;;;;;;;17.02;12.25;;;;;;;2.45;72.46;97698.56;1815096;79;20988;-81
2021/10/10 02:26:53;;;;;;;18.00;10.80;;;;;;;2.46;72.54;97697.64;1847254;77;21416;-81
2021/10/10 02:29:20;;;;;;;18.35;12.00;;;;;;;2.42;72.29;97697.45;1849021;77;20973;-80
2021/10/10 02:31:46;;;;;;;19.65;13.05;;;;;;;2.38;72.07;97690.42;1849682;77;21043;-80
2021/10/10 02:34:13;;;;;;;21.55;12.90;;;;;;;2.37;72.55;97691.34;1849680;76;21445;-80
2021/10/10 02:36:40;;;;;;;17.98;12.55;;;;;;;2.37;72.58;97688.78;1849737;76;21039;-80
2021/10/10 02:39:06;;;;;;;19.45;12.25;;;;;;;2.38;72.56;97692.99;1849214;77;21050;-80
2021/10/10 02:41:32;;;;;;;20.65;13.45;;;;;;;2.36;72.34;97694.02;1849279;76;21048;-80
2021/10/10 02:43:58;;;;;;;21.33;12.93;;;;;;;2.34;72.45;97695.86;1849722;76;21063;-80
2021/10/10 02:46:23;;;;;;;19.10;12.40;;;;;;;2.32;72.51;97698.53;1849113;77;21070;-81
2021/10/10 02:48:49;;;;;;;18.90;11.78;;;;;;;2.32;72.21;97691.30;1848501;77;21102;-80
2021/10/10 02:51:15;;;;;;;18.52;12.13;;;;;;;2.33;72.95;97696.78;1834039;77;21526;-80
2021/10/10 02:53:41;;;;;;;19.00;12.75;;;;;;;2.33;72.73;97692.94;1848713;76;21047;-80
2021/10/10 02:56:06;;;;;;;19.48;12.50;;;;;;;2.31;72.75;97692.22;1850961;77;21011;-80
2021/10/10 02:58:33;;;;;;;19.17;11.73;;;;;;;2.29;73.04;97692.31;1789398;77;21434;-81
2021/10/10 03:00:58;;;;;;;20.90;13.10;;;;;;;2.27;72.76;97689.46;1847312;77;21129;-80
2021/10/10 03:03:24;;;;;;;21.48;13.18;;;;;;;2.25;72.74;97681.05;1813998;77;22082;-80
2021/10/10 03:05:50;;;;;;;22.15;13.05;;;;;;;2.24;72.75;97674.28;1799030;77;20992;-80
2021/10/10 03:08:16;;;;;;;24.43;13.62;;;;;;;2.27;72.83;97675.36;1797734;78;21075;-80
2021/10/10 03:10:41;;;;;;;21.97;13.20;;;;;;;2.28;72.76;97676.57;1817304;77;20980;-81
2021/10/10 03:13:07;;;;;;;22.25;14.28;;;;;;;2.27;72.75;97666.38;1816439;77;21078;-80
2021/10/10 03:15:35;;;;;;;21.77;13.72;;;;;;;2.24;72.85;97662.73;1816375;77;21071;-80
2021/10/10 03:18:02;;;;;;;20.85;13.88;;;;;;;2.20;72.98;97660.84;1828812;78;21004;-80
2021/10/10 03:20:28;;;;;;;23.62;12.10;;;;;;;2.19;73.08;97657.91;1801610;78;21052;-80
2021/10/10 03:22:53;;;;;;;23.73;13.00;;;;;;;2.17;72.56;97652.06;1773914;78;21405;-80
2021/10/10 03:25:19;;;;;;;19.25;11.97;;;;;;;2.15;72.51;97650.06;1810331;78;21063;-80
2021/10/10 03:27:45;;;;;;;22.15;13.20;;;;;;;2.15;72.65;97655.19;1820219;77;21087;-81
2021/10/10 03:30:10;;;;;;;22.62;12.82;;;;;;;2.13;72.90;97651.91;1816080;78;21044;-80
2021/10/10 03:32:36;;;;;;;19.27;12.95;;;;;;;2.11;72.94;97649.88;1817198;77;21003;-80
2021/10/10 03:35:03;;;;;;;20.00;12.82;;;;;;;2.09;73.18;97650.44;1816631;77;21035;-80
2021/10/10 03:37:28;;;;;;;18.50;13.60;;;;;;;2.10;73.27;97646.95;1849470;77;21410;-81
2021/10/10 03:39:55;;;;;;;23.10;13.58;;;;;;;2.10;73.17;97645.20;1849635;77;21038;-80
2021/10/10 03:42:20;;;;;;;21.73;12.82;;;;;;;2.12;73.58;97646.42;1850064;77;21059;-81
2021/10/10 03:44:46;;;;;;;22.70;14.20;;;;;;;2.11;73.22;97646.03;1801552;77;20997;-80
2021/10/10 03:47:15;;;;;;;20.43;13.90;;;;;;;2.09;73.55;97645.30;1840356;76;21028;-80
2021/10/10 03:49:40;;;;;;;21.12;12.68;;;;;;;2.09;73.51;97638.90;1845863;76;21092;-80
2021/10/10 03:52:06;;;;;;;19.75;13.95;;;;;;;2.08;73.43;97632.95;1865067;75;21123;-80
2021/10/10 03:57:02;;;;;;;20.65;13.18;;;;;;;2.12;73.30;97635.34;1815423;78;21400;-80
2021/10/10 03:59:28;;;;;;;21.55;13.55;;;;;;;2.10;73.17;97629.00;1840803;76;21071;-80
2021/10/10 04:01:53;;;;;;;18.42;13.53;;;;;;;2.08;73.14;97629.56;1820597;76;21601;-81
2021/10/10 04:04:19;;;;;;;22.42;15.63;;;;;;;2.07;73.04;97629.20;1824609;77;21200;-80
2021/10/10 04:06:45;;;;;;;21.35;13.58;;;;;;;2.04;73.14;97630.23;1845609;75;21206;-81
2021/10/10 04:09:10;;;;;;;22.27;13.38;;;;;;;2.01;73.32;97629.61;1841972;76;21107;-80
2021/10/10 04:11:36;;;;;;;22.93;12.60;;;;;;;2.00;73.41;97624.94;1837723;76;21446;-80
2021/10/10 04:14:02;;;;;;;21.10;13.70;;;;;;;2.03;73.41;97627.77;1824199;75;21202;-80
2021/10/10 04:16:29;;;;;;;24.65;14.15;;;;;;;2.04;73.32;97627.66;1813012;77;21064;-80
2021/10/10 04:18:55;;;;;;;22.25;12.95;;;;;;;2.03;73.20;97626.48;1799526;78;21419;-80
2021/10/10 04:21:20;;;;;;;22.95;12.95;;;;;;;2.00;73.27;97627.97;1768269;80;21128;-80
2021/10/10 04:23:46;;;;;;;23.40;14.53;;;;;;;1.96;73.25;97629.09;1813075;77;21091;-80
2021/10/10 04:26:12;;;;;;;20.23;12.95;;;;;;;1.91;73.30;97626.80;1836264;77;21142;-80
2021/10/10 04:28:38;;;;;;;22.27;13.83;;;;;;;1.90;73.28;97626.89;1837759;77;21460;-80
2021/10/10 04:31:03;;;;;;;22.37;14.05;;;;;;;1.88;73.21;97621.05;1838685;76;21156;-80
2021/10/10 04:33:29;;;;;;;24.75;14.15;;;;;;;1.85;73.39;97624.63;1838246;75;21497;-81
2021/10/10 04:35:55;;;;;;;19.77;13.45;;;;;;;1.83;73.47;97619.25;1823407;77;21027;-80
2021/10/10 04:38:20;;;;;;;25.32;14.18;;;;;;;1.78;73.53;97615.21;1839817;76;21162;-81
2021/10/10 04:40:46;;;;;;;22.95;15.10;;;;;;;1.74;73.55;97615.52;1835276;77;21474;-80
2021/10/10 04:43:12;;;;;;;21.52;15.15;;;;;;;1.71;73.85;97613.97;1845265;77;21134;-81
2021/10/10 04:45:39;;;;;;;22.30;13.25;;;;;;;1.67;73.98;97615.55;1832593;77;21031;-80
2021/10/10 04:48:05;;;;;;;18.48;12.58;;;;;;;1.65;73.96;97616.11;1840699;76;21117;-80
2021/10/10 04:50:32;;;;;;;21.15;14.00;;;;;;;1.63;73.91;97614.11;1849738;76;21066;-80
2021/10/10 04:52:57;;;;;;;21.62;13.65;;;;;;;1.61;73.83;97618.02;1802178;77;21103;-80
2021/10/10 04:55:23;;;;;;;20.88;14.07;;;;;;;1.61;74.04;97611.61;1829843;77;21079;-80
2021/10/10 04:57:49;;;;;;;22.25;14.58;;;;;;;1.61;74.33;97618.02;1775757;77;21097;-80
2021/10/10 05:00:15;;;;;;;22.58;14.73;;;;;;;1.55;74.22;97613.75;1775887;78;21670;-80
2021/10/10 05:02:40;;;;;;;25.90;14.87;;;;;;;1.53;74.24;97617.69;1784926;78;21107;-80
2021/10/10 05:05:07;;;;;;;24.00;14.23;;;;;;;1.53;74.43;97617.69;1837615;76;21066;-80
2021/10/10 05:07:33;;;;;;;22.80;13.60;;;;;;;1.57;74.55;97617.85;1842846;76;21072;-80
2021/10/10 05:09:59;;;;;;;21.45;14.75;;;;;;;1.56;74.46;97620.52;1840590;76;21370;-80
2021/10/10 05:12:25;;;;;;;23.00;14.13;;;;;;;1.56;74.53;97623.89;1824719;78;21083;-80
2021/10/10 05:14:51;;;;;;;20.15;14.13;;;;;;;1.55;74.64;97623.53;1832492;76;21078;-80
2021/10/10 05:17:17;;;;;;;18.65;12.88;;;;;;;1.54;74.60;97623.63;1841931;75;21027;-80
2021/10/10 05:19:43;;;;;;;24.63;14.87;;;;;;;1.57;74.64;97626.00;1809408;77;21071;-80
2021/10/10 05:22:09;;;;;;;20.82;13.88;;;;;;;1.59;74.64;97620.31;1834494;76;21012;-80
2021/10/10 05:24:35;;;;;;;19.37;13.15;;;;;;;1.60;74.73;97616.83;1822335;78;21382;-80
2021/10/10 05:27:01;;;;;;;20.97;15.03;;;;;;;1.60;74.89;97622.78;1810009;77;21113;-80
2021/10/10 05:29:27;;;;;;;25.05;15.90;;;;;;;1.60;74.90;97615.55;1844476;77;21164;-80
2021/10/10 05:31:52;;;;;;;22.15;14.58;;;;;;;1.58;74.89;97611.81;1798229;77;21078;-80
2021/10/10 05:34:19;;;;;;;24.02;15.03;;;;;;;1.62;74.86;97620.94;1826305;77;21173;-80
2021/10/10 05:36:44;;;;;;;19.62;13.10;;;;;;;1.60;74.76;97618.94;1835545;77;21541;-80
2021/10/10 05:39:10;;;;;;;22.05;14.65;;;;;;;1.63;74.98;97620.05;1823011;77;22408;-80
2021/10/10 05:41:36;;;;;;;24.05;14.05;;;;;;;1.65;74.83;97627.18;1787813;78;21199;-80
2021/10/10 05:44:02;;;;;;;19.60;14.35;;;;;;;1.62;74.84;97620.94;1760522;79;21151;-80
2021/10/10 05:46:29;;;;;;;23.55;14.33;;;;;;;1.61;74.89;97619.30;1796249;77;21265;-80
2021/10/10 05:48:55;;;;;;;20.20;13.50;;;;;;;1.58;74.92;97625.90;1857950;76;21043;-80
2021/10/10 05:51:20;;;;;;;21.07;13.30;;;;;;;1.60;75.41;97626.62;1831315;76;21432;-81
2021/10/10 05:53:46;;;;;;;23.12;13.53;;;;;;;1.61;75.19;97625.70;1833457;77;21042;-80
2021/10/10 05:56:15;;;;;;;21.17;14.07;;;;;;;1.64;75.49;97615.75;1828244;77;21039;-80
2021/10/10 05:58:43;;;;;;;23.70;14.63;;;;;;;1.66;75.39;97615.19;1810034;76;21160;-80
2021/10/10 06:01:08;;;;;;;23.25;14.65;;;;;;;1.66;75.53;97615.19;1806363;78;21392;-80
2021/10/10 06:03:37;;;;;;;22.87;14.55;;;;;;;1.65;75.68;97622.52;1813321;77;21031;-80
2021/10/10 06:06:03;;;;;;;24.60;13.85;;;;;;;1.66;76.01;97615.19;1831554;77;21453;-80
2021/10/10 06:08:29;;;;;;;22.15;12.43;;;;;;;1.67;75.82;97615.09;1845558;76;21038;-80
2021/10/10 06:10:55;;;;;;;21.33;13.93;;;;;;;1.72;75.71;97616.89;1829502;77;21139;-80
2021/10/10 06:13:21;;;;;;;21.25;14.87;;;;;;;1.75;75.79;97611.56;1843108;75;21405;-80
2021/10/10 06:15:48;;;;;;;24.77;15.45;;;;;;;1.79;75.78;97618.17;1830779;77;21460;-80
2021/10/10 06:18:14;;;;;;;21.48;14.63;;;;;;;1.82;75.87;97613.30;1806173;78;21099;-80
2021/10/10 06:20:41;;;;;;;22.10;15.25;;;;;;;1.86;75.95;97616.48;1849140;75;21110;-80
2021/10/10 06:23:08;;;;;;;23.00;13.40;;;;;;;1.86;75.69;97613.46;1819202;75;21075;-80
2021/10/10 06:25:33;;;;;;;26.60;15.28;;;;;;;1.92;75.73;97616.91;1822769;76;21039;-81
2021/10/10 06:27:59;;;;;;;23.32;15.55;;;;;;;1.95;75.57;97615.45;1835749;75;21497;-80
2021/10/10 06:30:25;;;;;;;63.73;31.93;;;;;;;1.98;75.80;97613.15;1836789;77;21215;-80
2021/10/10 06:32:50;;;;;;;99.47;49.35;;;;;;;1.98;75.76;97611.41;1823752;78;21130;-80
2021/10/10 06:35:16;;;;;;;62.55;31.42;;;;;;;1.98;75.74;97617.81;1802211;78;21134;-80
2021/10/10 06:37:42;;;;;;;43.95;22.50;;;;;;;1.98;75.77;97613.15;1796341;78;21209;-80
2021/10/10 06:40:09;;;;;;;39.58;23.80;;;;;;;1.98;75.92;97616.99;1832381;76;21075;-80
2021/10/10 06:42:35;;;;;;;31.10;18.32;;;;;;;1.99;75.85;97605.36;1824086;76;21480;-81
2021/10/10 06:45:01;;;;;;;25.48;15.63;;;;;;;2.05;76.11;97606.23;1833042;77;21038;-80
2021/10/10 06:47:27;;;;;;;21.37;14.53;;;;;;;2.13;76.12;97604.47;1843975;77;21067;-80
2021/10/10 06:49:53;;;;;;;21.17;14.33;;;;;;;2.19;76.06;97605.80;1834126;77;21067;-80
2021/10/10 06:52:19;;;;;;;23.22;14.10;;;;;;;2.23;76.20;97608.52;1836881;76;21014;-80
2021/10/10 06:54:45;;;;;;;19.17;13.00;;;;;;;2.23;76.17;97607.23;1828291;77;21413;-80
2021/10/10 06:57:11;;;;;;;20.60;13.72;;;;;;;2.25;76.16;97615.19;1828055;77;21003;-80
2021/10/10 06:59:37;;;;;;;20.95;13.68;;;;;;;2.29;76.27;97617.12;1838840;77;21107;-80
2021/10/10 07:02:03;;;;;;;20.85;13.38;;;;;;;2.34;76.21;97619.73;1814734;77;21032;-80
2021/10/10 07:04:28;;;;;;;35.00;19.75;;;;;;;2.41;76.22;97611.16;1815800;77;21031;-80
2021/10/10 07:06:54;;;;;;;56.80;31.55;;;;;;;2.51;76.03;97610.11;1807866;77;21173;-80
2021/10/10 07:09:20;;;;;;;75.37;42.65;;;;;;;2.58;75.83;97617.28;1836055;77;21166;-80
2021/10/10 07:11:46;;;;;;;57.38;34.33;;;;;;;2.64;75.83;97622.48;1810383;78;21114;-80
2021/10/10 07:14:12;;;;;;;39.13;22.40;;;;;;;2.70;75.95;97622.88;1786985;78;21175;-80
2021/10/10 07:16:40;;;;;;;32.53;19.48;;;;;;;2.75;76.23;97623.85;1798546;78;21118;-80
2021/10/10 07:19:06;;;;;;;28.67;16.90;;;;;;;2.78;76.25;97624.95;1774019;79;21085;-80
2021/10/10 07:26:34;;;;;;;39.03;24.10;;;;;;;2.87;76.44;97629.45;1805254;77;21043;-80
2021/10/10 07:29:00;;;;;;;41.55;26.40;;;;;;;2.97;76.18;97627.92;1811988;77;21094;-81
2021/10/10 07:31:26;;;;;;;49.15;29.05;;;;;;;3.07;76.04;97625.99;1803124;77;21101;-80
2021/10/10 07:33:51;;;;;;;46.90;27.27;;;;;;;3.15;75.93;97623.27;1787548;78;21114;-80
2021/10/10 07:36:17;;;;;;;42.33;26.57;;;;;;;3.22;75.45;97625.77;1795684;77;21379;-81
2021/10/10 07:38:44;;;;;;;46.15;28.52;;;;;;;3.26;75.75;97628.97;1820815;77;21432;-80
2021/10/10 07:41:09;;;;;;;48.02;29.18;;;;;;;3.29;75.28;97622.33;1815469;77;21121;-80
2021/10/10 07:43:35;;;;;;;46.53;29.63;;;;;;;3.34;75.61;97629.70;1818461;77;21016;-80
2021/10/10 07:46:10;;;;;;;50.15;29.60;;;;;;;3.35;75.59;97628.31;1810496;78;21110;-80
2021/10/10 07:48:36;;;;;;;49.18;31.42;;;;;;;3.40;75.79;97632.66;1765416;80;21456;-80
2021/10/10 07:51:03;;;;;;;51.77;38.25;;;;;;;3.45;75.91;97630.61;1822687;77;21152;-80
2021/10/10 07:53:29;;;;;;;58.58;38.98;;;;;;;3.48;75.82;97636.81;1840280;76;21054;-80
2021/10/10 07:55:55;;;;;;;52.10;35.45;;;;;;;3.51;75.83;97629.35;1786269;77;21129;-80
2021/10/10 07:58:21;;;;;;;58.50;40.12;;;;;;;3.53;76.03;97624.45;1814131;76;21379;-80
2021/10/10 08:00:47;;;;;;;58.83;42.05;;;;;;;3.57;76.24;97628.91;1786876;79;21020;-80
2021/10/10 08:03:13;;;;;;;54.77;37.42;;;;;;;3.61;76.33;97631.64;1814079;77;21066;-81
2021/10/10 08:05:43;;;;;;;54.20;37.70;;;;;;;3.67;76.44;97630.38;1795403;77;21431;-80
2021/10/10 08:08:10;;;;;;;57.78;36.45;;;;;;;3.76;76.48;97628.00;1839467;76;21081;-80
2021/10/10 08:10:36;;;;;;;66.87;43.17;;;;;;;3.85;76.49;97622.65;1808883;76;21082;-80
2021/10/10 08:13:01;;;;;;;53.05;35.90;;;;;;;3.99;76.36;97625.05;1827460;77;21031;-81
2021/10/10 08:15:27;;;;;;;51.90;35.33;;;;;;;4.13;76.13;97621.48;1838265;75;21398;-81
2021/10/10 08:17:53;;;;;;;47.27;31.23;;;;;;;4.26;76.02;97621.42;1861778;75;21020;-78
2021/10/10 08:20:19;;;;;;;45.35;33.23;;;;;;;4.39;76.23;97624.28;1835556;76;21107;-78
2021/10/10 08:22:47;;;;;;;51.25;36.38;;;;;;;4.46;76.14;97621.59;1811626;78;21544;-78
2021/10/10 08:25:12;;;;;;;50.60;35.28;;;;;;;4.50;75.87;97623.00;1797455;78;21154;-78
2021/10/10 08:27:39;;;;;;;51.48;34.60;;;;;;;4.55;75.70;97620.55;1820900;78;21036;-78
2021/10/10 08:30:08;;;;;;;47.78;32.85;;;;;;;4.61;75.82;97619.64;1817446;75;21050;-79
2021/10/10 08:32:35;;;;;;;44.73;34.10;;;;;;;4.73;76.23;97618.73;1837160;76;21156;-80
2021/10/10 08:35:02;;;;;;;43.20;31.87;;;;;;;4.89;75.89;97617.58;1806006;77;21413;-80
2021/10/10 08:37:28;;;;;;;42.50;30.92;;;;;;;5.03;74.84;97614.28;1842931;77;21070;-80
2021/10/10 08:39:53;;;;;;;46.42;31.77;;;;;;;5.03;74.37;97609.13;1808490;77;21409;-81
2021/10/10 08:42:27;;;;;;;44.35;32.42;;;;;;;5.11;74.65;97609.84;1799485;77;21047;-80
2021/10/10 08:44:52;;;;;;;38.67;28.00;;;;;;;5.11;74.80;97609.84;1827623;75;21079;-80
2021/10/10 08:47:18;;;;;;;45.40;30.55;;;;;;;5.09;73.46;97613.83;1826953;76;21393;-80
2021/10/10 08:49:45;;;;;;;44.65;30.77;;;;;;;5.03;73.48;97609.59;1795556;78;21434;-80
2021/10/10 08:52:12;;;;;;;46.05;30.65;;;;;;;5.09;73.74;97613.02;1817196;78;21022;-81
2021/10/10 08:54:38;;;;;;;40.92;28.95;;;;;;;5.25;74.59;97616.52;1796707;78;21060;-81
2021/10/10 08:57:08;;;;;;;45.30;32.13;;;;;;;5.33;73.99;97612.87;1804108;77;21094;-81
2021/10/10 08:59:38;;;;;;;44.75;32.42;;;;;;;5.50;74.41;97616.23;1790586;77;21110;-80
2021/10/10 09:02:04;;;;;;;41.55;30.40;;;;;;;5.60;73.60;97609.43;1804168;77;21111;-81
2021/10/10 09:04:39;;;;;;;43.15;29.60;;;;;;;5.74;73.60;97608.34;1830684;76;21163;-81
2021/10/10 09:07:06;;;;;;;43.45;29.87;;;;;;;5.85;73.07;97604.89;1841613;76;21410;-81
2021/10/10 09:09:33;;;;;;;39.80;28.70;;;;;;;5.93;72.86;97605.15;1854639;76;21042;-81
2021/10/10 09:12:05;;;;;;;46.60;30.40;;;;;;;6.00;72.41;97601.94;1862572;75;21397;-81
2021/10/10 09:14:48;;;;;;;38.28;27.90;;;;;;;6.07;72.56;97601.47;1838201;76;21099;-81
2021/10/10 09:17:17;;;;;;;38.00;25.88;;;;;;;6.17;72.75;97604.92;1825022;76;21008;-80
2021/10/10 09:19:58;;;;;;;39.42;28.25;;;;;;;6.21;70.97;97613.61;1827510;77;21007;-81
2021/10/10 09:22:26;;;;;;;35.05;26.30;;;;;;;6.27;71.62;97602.77;1792566;78;21106;-81
2021/10/10 09:25:09;;;;;;;41.28;29.27;;;;;;;6.32;70.80;97599.81;1835915;76;21052;-81
2021/10/10 09:27:35;;;;;;;43.60;29.25;;;;;;;6.41;72.20;97600.36;1841871;76;20995;-81
2021/10/10 09:30:04;;;;;;;38.98;28.15;;;;;;;6.48;71.80;97598.89;1814590;77;21031;-81
2021/10/10 09:32:28;;;;;;;38.92;28.60;;;;;;;6.50;69.98;97597.48;1789873;78;21064;-81
2021/10/10 09:34:54;;;;;;;42.15;28.92;;;;;;;6.41;71.04;97596.48;1795151;77;21066;-81
2021/10/10 09:37:36;;;;;;;39.18;27.58;;;;;;;6.45;71.73;97593.98;1844576;76;21058;-81
2021/10/10 09:42:40;;;;;;;39.50;27.82;;;;;;;6.55;70.92;97591.01;1837554;76;21084;-81
2021/10/10 09:45:15;;;;;;;38.80;27.52;;;;;;;6.60;71.18;97583.69;1808120;77;21074;-81
2021/10/10 09:47:53;;;;;;;37.60;27.32;;;;;;;6.69;70.93;97585.99;1842038;76;21102;-81
2021/10/10 09:50:21;;;;;;;41.00;29.12;;;;;;;6.75;70.77;97580.78;1811870;77;21062;-81
2021/10/10 09:52:59;;;;;;;42.10;29.98;;;;;;;6.85;71.64;97580.36;1800951;77;21525;-81
2021/10/10 09:55:26;;;;;;;38.55;28.05;;;;;;;6.99;71.03;97579.17;1804529;77;21138;-81
2021/10/10 09:57:51;;;;;;;39.63;29.00;;;;;;;7.03;70.19;97583.16;1792263;78;21119;-81
2021/10/10 10:02:43;;;;;;;42.65;28.98;;;;;;;7.07;69.57;97577.59;1777100;78;21023;-81
2021/10/10 10:05:09;;;;;;;37.60;26.68;;;;;;;7.14;70.93;97568.83;1802220;79;21027;-81
2021/10/10 10:07:35;;;;;;;38.85;25.95;;;;;;;7.21;70.49;97572.06;1803096;78;21094;-81
2021/10/10 10:10:01;;;;;;;42.27;28.52;;;;;;;7.29;70.20;97571.39;1815568;78;21111;-81
2021/10/10 10:12:27;;;;;;;40.55;28.92;;;;;;;7.36;69.83;97570.41;1822350;77;21139;-81
2021/10/10 10:15:00;;;;;;;39.85;28.00;;;;;;;7.48;70.29;97565.00;1840238;76;22191;-81
2021/10/10 10:17:27;;;;;;;39.10;25.60;;;;;;;7.55;68.81;97570.44;1832292;76;21055;-80
2021/10/10 10:19:58;;;;;;;35.08;26.70;;;;;;;7.63;69.42;97568.46;1828473;77;21035;-81
2021/10/10 10:22:25;;;;;;;32.63;23.65;;;;;;;7.75;69.89;97566.92;1806080;77;21338;-81
2021/10/10 10:24:51;;;;;;;31.68;21.07;;;;;;;7.81;67.47;97565.10;1807285;78;21082;-80
2021/10/10 10:27:17;;;;;;;36.28;25.23;;;;;;;7.81;67.76;97562.99;1786136;78;21074;-81
2021/10/10 10:29:46;;;;;;;36.83;26.05;;;;;;;7.81;66.86;97562.52;1797826;77;21501;-80
2021/10/10 10:32:14;;;;;;;36.93;26.55;;;;;;;7.85;68.15;97565.64;1812081;77;21449;-81
2021/10/10 10:34:41;;;;;;;32.70;22.80;;;;;;;7.97;68.56;97568.89;1808222;78;21078;-80
2021/10/10 10:37:10;;;;;;;41.02;27.13;;;;;;;8.02;66.77;97568.03;1791893;77;21517;-81
2021/10/10 10:39:48;;;;;;;42.30;29.10;;;;;;;7.92;67.56;97573.67;1810717;77;21048;-81
2021/10/10 10:42:26;;;;;;;35.25;26.17;;;;;;;7.88;68.66;97573.12;1780567;79;21088;-81
2021/10/10 10:44:52;;;;;;;38.80;26.85;;;;;;;7.82;67.75;97569.80;1835571;76;21491;-80
2021/10/10 10:47:24;;;;;;;39.60;27.55;;;;;;;7.79;67.55;97570.86;1840362;77;21037;-81
2021/10/10 10:50:02;;;;;;;40.05;26.55;;;;;;;7.80;67.48;97576.38;1800211;79;21022;-81
2021/10/10 10:55:15;;;;;;;38.67;27.42;;;;;;;7.96;67.31;97573.73;1840274;77;21539;-81
2021/10/10 10:57:53;;;;;;;29.63;22.13;;;;;;;8.11;67.40;97566.71;1843918;75;21009;-81
2021/10/10 11:00:33;;;;;;;39.35;27.10;;;;;;;8.22;66.96;97565.77;1853315;77;21071;-81
2021/10/10 11:03:24;;;;;;;38.88;26.50;;;;;;;8.27;67.28;97568.74;1847186;77;21133;-81
2021/10/10 11:06:00;;;;;;;30.68;24.67;;;;;;;8.34;66.45;97569.87;1847315;76;21361;-81
2021/10/10 11:11:20;;;;;;;34.98;25.88;;;;;;;8.46;65.86;97569.70;1839389;77;21039;-81
2021/10/10 11:13:55;;;;;;;36.90;25.43;;;;;;;8.42;66.04;97558.80;1849151;77;21057;-81
2021/10/10 11:16:32;;;;;;;39.40;26.60;;;;;;;8.47;67.01;97563.59;1849951;77;21043;-81
2021/10/10 11:19:08;;;;;;;37.53;23.57;;;;;;;8.56;67.68;97556.26;1845660;77;21032;-81
2021/10/10 11:24:19;;;;;;;29.12;21.27;;;;;;;8.78;65.99;97556.39;1806165;77;21003;-82
2021/10/10 11:29:10;;;;;;;36.93;25.55;;;;;;;8.71;64.53;97553.08;1795037;78;21111;-81
2021/10/10 11:31:37;;;;;;;34.03;23.20;;;;;;;8.66;65.34;97548.81;1816834;77;21039;-81
2021/10/10 11:34:05;;;;;;;28.52;19.90;;;;;;;8.63;65.60;97550.39;1849429;77;21089;-81
2021/10/10 11:39:23;;;;;;;34.38;22.30;;;;;;;8.58;66.05;97549.16;1846710;77;21075;-81
2021/10/10 11:41:57;;;;;;;31.68;21.97;;;;;;;8.57;65.15;97547.52;1849792;77;20999;-81
2021/10/10 11:44:37;;;;;;;34.80;24.32;;;;;;;8.51;63.87;97550.21;1850029;77;21429;-81
2021/10/10 11:47:05;;;;;;;33.53;23.75;;;;;;;8.48;65.47;97550.98;1849771;77;21011;-81
2021/10/10 11:49:39;;;;;;;39.08;25.23;;;;;;;8.49;64.90;97546.95;1849929;77;21378;-82
2021/10/10 11:54:48;;;;;;;30.70;22.37;;;;;;;8.59;65.70;97550.31;1847095;77;21043;-81
2021/10/10 11:57:15;;;;;;;36.33;23.37;;;;;;;8.60;64.94;97549.83;1825880;76;21090;-81